sensor_id;sensor_type;location;lat;lon;timestamp;temperature;humidity
57857;DHT22;43683;48.650;9.290;2023-04-24T00:00:34;9.90;81.30
57857;DHT22;43683;48.650;9.290;2023-04-24T00:03:00;9.90;81.50
57857;DHT22;43683;48.650;9.290;2023-04-24T00:05:25;9.80;81.60
57857;DHT22;43683;48.650;9.290;2023-04-24T00:07:51;9.80;81.70
57857;DHT22;43683;48.650;9.290;2023-04-24T00:10:18;9.80;81.80
57857;DHT22;43683;48.650;9.290;2023-04-24T00:12:43;9.80;81.70
57857;DHT22;43683;48.650;9.290;2023-04-24T00:15:10;9.80;81.70
57857;DHT22;43683;48.650;9.290;2023-04-24T00:17:35;9.90;81.60
57857;DHT22;43683;48.650;9.290;2023-04-24T00:20:01;9.90;81.60
57857;DHT22;43683;48.650;9.290;2023-04-24T00:22:30;9.80;81.60
57857;DHT22;43683;48.650;9.290;2023-04-24T00:24:55;9.90;81.50
57857;DHT22;43683;48.650;9.290;2023-04-24T00:27:21;9.90;81.40
57857;DHT22;43683;48.650;9.290;2023-04-24T00:29:47;10.00;81.30
57857;DHT22;43683;48.650;9.290;2023-04-24T00:32:13;10.10;81.00
57857;DHT22;43683;48.650;9.290;2023-04-24T00:34:39;10.10;80.70
57857;DHT22;43683;48.650;9.290;2023-04-24T00:37:04;10.20;80.60
57857;DHT22;43683;48.650;9.290;2023-04-24T00:39:30;10.20;80.60
57857;DHT22;43683;48.650;9.290;2023-04-24T00:41:56;10.30;80.50
57857;DHT22;43683;48.650;9.290;2023-04-24T00:44:22;10.30;80.40
57857;DHT22;43683;48.650;9.290;2023-04-24T00:46:48;10.30;80.50
57857;DHT22;43683;48.650;9.290;2023-04-24T00:49:18;10.30;80.60
57857;DHT22;43683;48.650;9.290;2023-04-24T00:51:44;10.30;80.50
57857;DHT22;43683;48.650;9.290;2023-04-24T00:54:11;10.30;80.30
57857;DHT22;43683;48.650;9.290;2023-04-24T00:56:37;10.40;80.30
57857;DHT22;43683;48.650;9.290;2023-04-24T00:59:03;10.40;80.40
57857;DHT22;43683;48.650;9.290;2023-04-24T01:01:29;10.40;80.40
57857;DHT22;43683;48.650;9.290;2023-04-24T01:03:55;10.40;80.40
57857;DHT22;43683;48.650;9.290;2023-04-24T01:06:23;10.40;80.40
57857;DHT22;43683;48.650;9.290;2023-04-24T01:08:52;10.40;80.40
57857;DHT22;43683;48.650;9.290;2023-04-24T01:11:18;10.40;80.30
57857;DHT22;43683;48.650;9.290;2023-04-24T01:13:43;10.40;80.40
57857;DHT22;43683;48.650;9.290;2023-04-24T01:16:10;10.40;80.50
57857;DHT22;43683;48.650;9.290;2023-04-24T01:18:36;10.40;80.40
57857;DHT22;43683;48.650;9.290;2023-04-24T01:21:04;10.40;80.50
57857;DHT22;43683;48.650;9.290;2023-04-24T01:23:29;10.40;80.60
57857;DHT22;43683;48.650;9.290;2023-04-24T01:25:55;10.40;80.60
57857;DHT22;43683;48.650;9.290;2023-04-24T01:28:21;10.40;80.50
57857;DHT22;43683;48.650;9.290;2023-04-24T01:30:47;10.40;80.40
57857;DHT22;43683;48.650;9.290;2023-04-24T01:33:13;10.40;80.40
57857;DHT22;43683;48.650;9.290;2023-04-24T01:35:39;10.40;80.50
57857;DHT22;43683;48.650;9.290;2023-04-24T01:38:05;10.30;80.70
57857;DHT22;43683;48.650;9.290;2023-04-24T01:40:31;10.20;81.00
57857;DHT22;43683;48.650;9.290;2023-04-24T01:42:58;10.10;81.50
57857;DHT22;43683;48.650;9.290;2023-04-24T01:45:24;10.00;81.90
57857;DHT22;43683;48.650;9.290;2023-04-24T01:47:49;9.80;82.40
57857;DHT22;43683;48.650;9.290;2023-04-24T01:50:15;9.70;82.80
57857;DHT22;43683;48.650;9.290;2023-04-24T01:52:41;9.60;83.20
57857;DHT22;43683;48.650;9.290;2023-04-24T01:55:07;9.60;83.60
57857;DHT22;43683;48.650;9.290;2023-04-24T01:57:33;9.50;83.60
57857;DHT22;43683;48.650;9.290;2023-04-24T01:59:59;9.50;83.50
57857;DHT22;43683;48.650;9.290;2023-04-24T02:02:25;9.60;83.20
57857;DHT22;43683;48.650;9.290;2023-04-24T02:04:56;9.70;82.80
57857;DHT22;43683;48.650;9.290;2023-04-24T02:07:21;9.90;82.30
57857;DHT22;43683;48.650;9.290;2023-04-24T02:09:47;9.90;81.70
57857;DHT22;43683;48.650;9.290;2023-04-24T02:12:13;10.10;81.50
57857;DHT22;43683;48.650;9.290;2023-04-24T02:14:38;10.10;81.30
57857;DHT22;43683;48.650;9.290;2023-04-24T02:17:04;10.20;81.10
57857;DHT22;43683;48.650;9.290;2023-04-24T02:19:30;10.30;81.10
57857;DHT22;43683;48.650;9.290;2023-04-24T02:21:55;10.30;81.20
57857;DHT22;43683;48.650;9.290;2023-04-24T02:24:21;10.20;81.30
57857;DHT22;43683;48.650;9.290;2023-04-24T02:26:47;10.10;81.70
57857;DHT22;43683;48.650;9.290;2023-04-24T02:29:12;9.90;82.20
57857;DHT22;43683;48.650;9.290;2023-04-24T02:31:38;9.80;82.80
57857;DHT22;43683;48.650;9.290;2023-04-24T02:34:03;9.60;83.60
57857;DHT22;43683;48.650;9.290;2023-04-24T02:36:29;9.40;84.00
57857;DHT22;43683;48.650;9.290;2023-04-24T02:38:55;9.30;84.50
57857;DHT22;43683;48.650;9.290;2023-04-24T02:41:21;9.30;85.00
57857;DHT22;43683;48.650;9.290;2023-04-24T02:43:46;9.20;85.20
57857;DHT22;43683;48.650;9.290;2023-04-24T02:46:12;9.30;85.30
57857;DHT22;43683;48.650;9.290;2023-04-24T02:48:37;9.30;85.10
57857;DHT22;43683;48.650;9.290;2023-04-24T02:51:03;9.40;85.00
57857;DHT22;43683;48.650;9.290;2023-04-24T02:53:29;9.40;84.90
57857;DHT22;43683;48.650;9.290;2023-04-24T02:55:56;9.50;85.60
57857;DHT22;43683;48.650;9.290;2023-04-24T02:58:21;9.50;84.90
57857;DHT22;43683;48.650;9.290;2023-04-24T03:00:47;9.50;85.10
57857;DHT22;43683;48.650;9.290;2023-04-24T03:03:13;9.50;85.10
57857;DHT22;43683;48.650;9.290;2023-04-24T03:05:39;9.60;85.20
57857;DHT22;43683;48.650;9.290;2023-04-24T03:08:04;9.60;85.20
57857;DHT22;43683;48.650;9.290;2023-04-24T03:10:30;9.70;85.30
57857;DHT22;43683;48.650;9.290;2023-04-24T03:12:56;9.70;85.20
57857;DHT22;43683;48.650;9.290;2023-04-24T03:15:21;9.70;85.30
57857;DHT22;43683;48.650;9.290;2023-04-24T03:17:47;9.80;85.40
57857;DHT22;43683;48.650;9.290;2023-04-24T03:20:13;9.80;85.50
57857;DHT22;43683;48.650;9.290;2023-04-24T03:22:38;9.80;85.80
57857;DHT22;43683;48.650;9.290;2023-04-24T03:25:04;9.70;85.70
57857;DHT22;43683;48.650;9.290;2023-04-24T03:27:30;9.70;85.70
57857;DHT22;43683;48.650;9.290;2023-04-24T03:29:56;9.60;85.90
57857;DHT22;43683;48.650;9.290;2023-04-24T03:32:21;9.60;86.20
57857;DHT22;43683;48.650;9.290;2023-04-24T03:34:48;9.50;86.50
57857;DHT22;43683;48.650;9.290;2023-04-24T03:37:14;9.40;86.90
57857;DHT22;43683;48.650;9.290;2023-04-24T03:39:40;9.30;87.20
57857;DHT22;43683;48.650;9.290;2023-04-24T03:42:05;9.30;87.50
57857;DHT22;43683;48.650;9.290;2023-04-24T03:44:31;9.30;87.60
57857;DHT22;43683;48.650;9.290;2023-04-24T03:46:58;9.30;87.60
57857;DHT22;43683;48.650;9.290;2023-04-24T03:49:23;9.30;87.50
57857;DHT22;43683;48.650;9.290;2023-04-24T03:51:49;9.30;87.40
57857;DHT22;43683;48.650;9.290;2023-04-24T03:54:14;9.30;87.50
57857;DHT22;43683;48.650;9.290;2023-04-24T03:56:40;9.20;87.70
57857;DHT22;43683;48.650;9.290;2023-04-24T03:59:05;9.10;88.00
57857;DHT22;43683;48.650;9.290;2023-04-24T04:01:31;9.00;88.40
57857;DHT22;43683;48.650;9.290;2023-04-24T04:03:56;8.90;88.70
57857;DHT22;43683;48.650;9.290;2023-04-24T04:06:22;8.80;89.10
57857;DHT22;43683;48.650;9.290;2023-04-24T04:08:47;8.70;89.40
57857;DHT22;43683;48.650;9.290;2023-04-24T04:11:13;8.70;89.60
57857;DHT22;43683;48.650;9.290;2023-04-24T04:13:39;8.70;89.80
57857;DHT22;43683;48.650;9.290;2023-04-24T04:16:04;8.70;89.80
57857;DHT22;43683;48.650;9.290;2023-04-24T04:18:30;8.80;89.50
57857;DHT22;43683;48.650;9.290;2023-04-24T04:20:56;8.90;89.00
57857;DHT22;43683;48.650;9.290;2023-04-24T04:23:22;9.10;88.90
57857;DHT22;43683;48.650;9.290;2023-04-24T04:25:48;9.20;88.50
57857;DHT22;43683;48.650;9.290;2023-04-24T04:28:13;9.30;88.10
57857;DHT22;43683;48.650;9.290;2023-04-24T04:30:39;9.40;87.90
57857;DHT22;43683;48.650;9.290;2023-04-24T04:33:05;9.40;87.80
57857;DHT22;43683;48.650;9.290;2023-04-24T04:35:31;9.50;87.70
57857;DHT22;43683;48.650;9.290;2023-04-24T04:37:56;9.60;87.70
57857;DHT22;43683;48.650;9.290;2023-04-24T04:40:24;9.60;87.70
57857;DHT22;43683;48.650;9.290;2023-04-24T04:42:50;9.60;87.50
57857;DHT22;43683;48.650;9.290;2023-04-24T04:45:18;9.70;87.50
57857;DHT22;43683;48.650;9.290;2023-04-24T04:47:44;9.70;87.40
57857;DHT22;43683;48.650;9.290;2023-04-24T04:50:10;9.80;87.50
57857;DHT22;43683;48.650;9.290;2023-04-24T04:52:35;9.80;87.40
57857;DHT22;43683;48.650;9.290;2023-04-24T04:55:01;9.70;87.50
57857;DHT22;43683;48.650;9.290;2023-04-24T04:57:27;9.70;87.60
57857;DHT22;43683;48.650;9.290;2023-04-24T04:59:52;9.70;87.70
57857;DHT22;43683;48.650;9.290;2023-04-24T05:02:18;9.60;88.10
57857;DHT22;43683;48.650;9.290;2023-04-24T05:04:43;9.20;88.60
57857;DHT22;43683;48.650;9.290;2023-04-24T05:07:10;8.80;89.40
57857;DHT22;43683;48.650;9.290;2023-04-24T05:09:36;8.50;90.00
57857;DHT22;43683;48.650;9.290;2023-04-24T05:12:01;8.30;90.00
57857;DHT22;43683;48.650;9.290;2023-04-24T05:14:27;8.20;90.10
57857;DHT22;43683;48.650;9.290;2023-04-24T05:16:53;8.10;90.10
57857;DHT22;43683;48.650;9.290;2023-04-24T05:19:18;8.10;90.00
57857;DHT22;43683;48.650;9.290;2023-04-24T05:21:44;8.10;89.90
57857;DHT22;43683;48.650;9.290;2023-04-24T05:24:09;8.20;89.70
57857;DHT22;43683;48.650;9.290;2023-04-24T05:26:35;8.20;89.50
57857;DHT22;43683;48.650;9.290;2023-04-24T05:29:01;8.20;89.30
57857;DHT22;43683;48.650;9.290;2023-04-24T05:31:26;8.20;89.30
57857;DHT22;43683;48.650;9.290;2023-04-24T05:33:52;8.20;89.20
57857;DHT22;43683;48.650;9.290;2023-04-24T05:36:17;8.20;89.20
57857;DHT22;43683;48.650;9.290;2023-04-24T05:38:43;8.20;89.20
57857;DHT22;43683;48.650;9.290;2023-04-24T05:41:08;8.10;89.80
57857;DHT22;43683;48.650;9.290;2023-04-24T05:43:34;8.10;89.10
57857;DHT22;43683;48.650;9.290;2023-04-24T05:45:59;8.20;89.10
57857;DHT22;43683;48.650;9.290;2023-04-24T05:48:25;8.20;89.20
57857;DHT22;43683;48.650;9.290;2023-04-24T05:50:51;8.20;89.00
57857;DHT22;43683;48.650;9.290;2023-04-24T05:53:18;8.30;88.70
57857;DHT22;43683;48.650;9.290;2023-04-24T05:55:43;8.50;88.30
57857;DHT22;43683;48.650;9.290;2023-04-24T05:58:09;8.60;87.70
57857;DHT22;43683;48.650;9.290;2023-04-24T06:00:35;8.80;87.20
57857;DHT22;43683;48.650;9.290;2023-04-24T06:03:01;8.90;86.90
57857;DHT22;43683;48.650;9.290;2023-04-24T06:05:27;9.00;86.80
57857;DHT22;43683;48.650;9.290;2023-04-24T06:07:53;9.10;86.70
57857;DHT22;43683;48.650;9.290;2023-04-24T06:10:19;9.20;86.70
57857;DHT22;43683;48.650;9.290;2023-04-24T06:12:44;9.20;86.70
57857;DHT22;43683;48.650;9.290;2023-04-24T06:15:10;9.30;86.70
57857;DHT22;43683;48.650;9.290;2023-04-24T06:17:35;9.40;86.80
57857;DHT22;43683;48.650;9.290;2023-04-24T06:20:02;9.50;86.60
57857;DHT22;43683;48.650;9.290;2023-04-24T06:22:30;9.60;86.30
57857;DHT22;43683;48.650;9.290;2023-04-24T06:24:56;9.80;85.80
57857;DHT22;43683;48.650;9.290;2023-04-24T06:27:21;9.90;85.60
57857;DHT22;43683;48.650;9.290;2023-04-24T06:29:47;9.80;85.80
57857;DHT22;43683;48.650;9.290;2023-04-24T06:32:20;9.80;86.10
57857;DHT22;43683;48.650;9.290;2023-04-24T06:34:45;9.70;86.70
57857;DHT22;43683;48.650;9.290;2023-04-24T06:37:11;9.70;87.00
57857;DHT22;43683;48.650;9.290;2023-04-24T06:39:36;9.70;87.40
57857;DHT22;43683;48.650;9.290;2023-04-24T06:42:02;9.80;87.40
57857;DHT22;43683;48.650;9.290;2023-04-24T06:44:28;10.00;87.20
57857;DHT22;43683;48.650;9.290;2023-04-24T06:46:53;10.20;86.80
57857;DHT22;43683;48.650;9.290;2023-04-24T06:49:19;10.50;86.10
57857;DHT22;43683;48.650;9.290;2023-04-24T06:51:45;10.80;85.50
57857;DHT22;43683;48.650;9.290;2023-04-24T06:54:10;11.10;84.50
57857;DHT22;43683;48.650;9.290;2023-04-24T06:56:36;11.30;84.00
57857;DHT22;43683;48.650;9.290;2023-04-24T06:59:02;11.50;83.90
57857;DHT22;43683;48.650;9.290;2023-04-24T07:01:27;11.60;83.50
57857;DHT22;43683;48.650;9.290;2023-04-24T07:03:53;11.90;82.50
57857;DHT22;43683;48.650;9.290;2023-04-24T07:06:18;12.40;81.70
57857;DHT22;43683;48.650;9.290;2023-04-24T07:08:46;12.60;80.90
57857;DHT22;43683;48.650;9.290;2023-04-24T07:11:12;13.20;79.30
57857;DHT22;43683;48.650;9.290;2023-04-24T07:13:38;13.60;78.30
57857;DHT22;43683;48.650;9.290;2023-04-24T07:16:07;14.00;77.70
57857;DHT22;43683;48.650;9.290;2023-04-24T07:18:33;14.10;77.60
57857;DHT22;43683;48.650;9.290;2023-04-24T07:20:59;13.90;77.80
57857;DHT22;43683;48.650;9.290;2023-04-24T07:23:24;13.50;78.90
57857;DHT22;43683;48.650;9.290;2023-04-24T07:25:50;12.90;80.10
57857;DHT22;43683;48.650;9.290;2023-04-24T07:28:15;12.40;81.50
57857;DHT22;43683;48.650;9.290;2023-04-24T07:30:43;12.00;82.50
57857;DHT22;43683;48.650;9.290;2023-04-24T07:33:08;11.80;82.90
57857;DHT22;43683;48.650;9.290;2023-04-24T07:35:36;11.70;83.20
57857;DHT22;43683;48.650;9.290;2023-04-24T07:38:02;11.40;83.40
57857;DHT22;43683;48.650;9.290;2023-04-24T07:40:27;11.00;83.60
57857;DHT22;43683;48.650;9.290;2023-04-24T07:42:53;10.40;85.40
57857;DHT22;43683;48.650;9.290;2023-04-24T07:45:18;9.90;87.10
57857;DHT22;43683;48.650;9.290;2023-04-24T07:47:44;9.60;87.80
57857;DHT22;43683;48.650;9.290;2023-04-24T07:50:11;9.50;87.90
57857;DHT22;43683;48.650;9.290;2023-04-24T07:52:37;9.80;88.40
57857;DHT22;43683;48.650;9.290;2023-04-24T07:55:03;10.40;88.50
57857;DHT22;43683;48.650;9.290;2023-04-24T07:57:28;10.80;88.10
57857;DHT22;43683;48.650;9.290;2023-04-24T07:59:54;11.20;87.40
57857;DHT22;43683;48.650;9.290;2023-04-24T08:02:20;11.70;86.50
57857;DHT22;43683;48.650;9.290;2023-04-24T08:04:52;12.10;85.50
57857;DHT22;43683;48.650;9.290;2023-04-24T08:07:18;12.70;84.30
57857;DHT22;43683;48.650;9.290;2023-04-24T08:09:43;13.10;83.10
57857;DHT22;43683;48.650;9.290;2023-04-24T08:12:09;13.50;81.50
57857;DHT22;43683;48.650;9.290;2023-04-24T08:14:35;14.00;80.40
57857;DHT22;43683;48.650;9.290;2023-04-24T08:17:00;14.40;77.70
57857;DHT22;43683;48.650;9.290;2023-04-24T08:19:26;14.60;75.80
57857;DHT22;43683;48.650;9.290;2023-04-24T08:21:52;14.30;74.90
57857;DHT22;43683;48.650;9.290;2023-04-24T08:24:17;14.00;74.10
57857;DHT22;43683;48.650;9.290;2023-04-24T08:26:43;13.60;73.80
57857;DHT22;43683;48.650;9.290;2023-04-24T08:29:09;13.50;73.90
57857;DHT22;43683;48.650;9.290;2023-04-24T08:31:35;13.40;73.90
57857;DHT22;43683;48.650;9.290;2023-04-24T08:34:00;13.20;73.80
57857;DHT22;43683;48.650;9.290;2023-04-24T08:36:26;12.90;74.20
57857;DHT22;43683;48.650;9.290;2023-04-24T08:38:52;12.90;73.90
57857;DHT22;43683;48.650;9.290;2023-04-24T08:41:18;12.90;73.70
57857;DHT22;43683;48.650;9.290;2023-04-24T08:43:46;13.30;73.10
57857;DHT22;43683;48.650;9.290;2023-04-24T08:46:13;13.80;72.30
57857;DHT22;43683;48.650;9.290;2023-04-24T08:48:39;13.80;72.20
57857;DHT22;43683;48.650;9.290;2023-04-24T08:51:07;13.50;72.20
57857;DHT22;43683;48.650;9.290;2023-04-24T08:53:33;13.40;72.70
57857;DHT22;43683;48.650;9.290;2023-04-24T08:56:01;13.30;72.80
57857;DHT22;43683;48.650;9.290;2023-04-24T08:58:27;13.20;73.10
57857;DHT22;43683;48.650;9.290;2023-04-24T09:00:55;13.30;73.00
57857;DHT22;43683;48.650;9.290;2023-04-24T09:03:20;13.50;71.80
57857;DHT22;43683;48.650;9.290;2023-04-24T09:05:47;13.60;71.10
57857;DHT22;43683;48.650;9.290;2023-04-24T09:08:16;13.80;70.20
57857;DHT22;43683;48.650;9.290;2023-04-24T09:10:42;13.80;69.70
57857;DHT22;43683;48.650;9.290;2023-04-24T09:13:08;13.50;69.80
57857;DHT22;43683;48.650;9.290;2023-04-24T09:15:41;13.30;69.90
57857;DHT22;43683;48.650;9.290;2023-04-24T09:18:06;13.00;69.20
57857;DHT22;43683;48.650;9.290;2023-04-24T09:20:33;13.00;68.60
57857;DHT22;43683;48.650;9.290;2023-04-24T09:22:59;13.00;68.50
57857;DHT22;43683;48.650;9.290;2023-04-24T09:25:34;13.40;67.60
57857;DHT22;43683;48.650;9.290;2023-04-24T09:28:04;13.70;66.60
57857;DHT22;43683;48.650;9.290;2023-04-24T09:30:31;14.40;65.60
57857;DHT22;43683;48.650;9.290;2023-04-24T09:33:15;14.90;63.30
57857;DHT22;43683;48.650;9.290;2023-04-24T09:35:51;15.20;61.90
57857;DHT22;43683;48.650;9.290;2023-04-24T09:38:17;14.90;62.10
57857;DHT22;43683;48.650;9.290;2023-04-24T09:40:43;14.20;63.30
57857;DHT22;43683;48.650;9.290;2023-04-24T09:43:11;13.60;63.20
57857;DHT22;43683;48.650;9.290;2023-04-24T09:45:38;13.60;63.70
57857;DHT22;43683;48.650;9.290;2023-04-24T09:48:04;13.30;63.40
57857;DHT22;43683;48.650;9.290;2023-04-24T09:50:31;13.00;63.70
57857;DHT22;43683;48.650;9.290;2023-04-24T09:53:05;12.90;63.10
57857;DHT22;43683;48.650;9.290;2023-04-24T09:55:31;12.90;62.70
57857;DHT22;43683;48.650;9.290;2023-04-24T09:57:58;13.00;62.00
57857;DHT22;43683;48.650;9.290;2023-04-24T10:00:29;13.00;61.70
57857;DHT22;43683;48.650;9.290;2023-04-24T10:05:33;13.20;60.70
57857;DHT22;43683;48.650;9.290;2023-04-24T10:08:07;13.60;60.60
57857;DHT22;43683;48.650;9.290;2023-04-24T10:10:37;14.40;59.80
57857;DHT22;43683;48.650;9.290;2023-04-24T10:13:04;15.40;58.30
57857;DHT22;43683;48.650;9.290;2023-04-24T10:15:30;16.20;56.70
57857;DHT22;43683;48.650;9.290;2023-04-24T10:17:58;16.40;55.80
57857;DHT22;43683;48.650;9.290;2023-04-24T10:20:26;16.00;55.50
57857;DHT22;43683;48.650;9.290;2023-04-24T10:22:53;15.50;55.20
57857;DHT22;43683;48.650;9.290;2023-04-24T10:25:25;15.00;55.70
57857;DHT22;43683;48.650;9.290;2023-04-24T10:27:52;14.40;56.20
57857;DHT22;43683;48.650;9.290;2023-04-24T10:30:19;14.00;56.90
57857;DHT22;43683;48.650;9.290;2023-04-24T10:32:44;13.50;57.50
57857;DHT22;43683;48.650;9.290;2023-04-24T10:35:13;13.50;58.20
57857;DHT22;43683;48.650;9.290;2023-04-24T10:37:48;14.10;57.30
57857;DHT22;43683;48.650;9.290;2023-04-24T10:40:18;14.30;55.30
57857;DHT22;43683;48.650;9.290;2023-04-24T10:42:47;14.80;54.70
57857;DHT22;43683;48.650;9.290;2023-04-24T10:45:18;14.80;54.30
57857;DHT22;43683;48.650;9.290;2023-04-24T10:47:52;15.10;54.10
57857;DHT22;43683;48.650;9.290;2023-04-24T10:50:17;15.40;53.30
57857;DHT22;43683;48.650;9.290;2023-04-24T10:52:49;15.60;52.50
57857;DHT22;43683;48.650;9.290;2023-04-24T10:55:42;15.40;52.20
57857;DHT22;43683;48.650;9.290;2023-04-24T10:58:08;15.10;52.70
57857;DHT22;43683;48.650;9.290;2023-04-24T11:00:37;15.00;53.30
57857;DHT22;43683;48.650;9.290;2023-04-24T11:03:22;15.10;53.00
57857;DHT22;43683;48.650;9.290;2023-04-24T11:05:51;15.20;52.80
57857;DHT22;43683;48.650;9.290;2023-04-24T11:08:25;15.30;52.80
57857;DHT22;43683;48.650;9.290;2023-04-24T11:11:09;15.30;52.70
57857;DHT22;43683;48.650;9.290;2023-04-24T11:16:42;14.60;53.50
57857;DHT22;43683;48.650;9.290;2023-04-24T11:19:09;14.30;54.00
57857;DHT22;43683;48.650;9.290;2023-04-24T11:21:47;14.00;54.60
57857;DHT22;43683;48.650;9.290;2023-04-24T11:27:15;14.30;54.40
57857;DHT22;43683;48.650;9.290;2023-04-24T11:30:00;14.70;54.10
57857;DHT22;43683;48.650;9.290;2023-04-24T11:35:06;15.20;53.50
57857;DHT22;43683;48.650;9.290;2023-04-24T11:37:39;15.70;52.90
57857;DHT22;43683;48.650;9.290;2023-04-24T11:40:08;15.70;52.50
57857;DHT22;43683;48.650;9.290;2023-04-24T11:42:38;15.20;53.20
57857;DHT22;43683;48.650;9.290;2023-04-24T11:45:18;14.60;53.90
57857;DHT22;43683;48.650;9.290;2023-04-24T11:47:45;14.10;54.90
57857;DHT22;43683;48.650;9.290;2023-04-24T11:50:12;13.90;55.30
57857;DHT22;43683;48.650;9.290;2023-04-24T11:52:39;14.00;55.20
57857;DHT22;43683;48.650;9.290;2023-04-24T11:55:07;14.00;55.30
57857;DHT22;43683;48.650;9.290;2023-04-24T11:57:34;13.90;55.50
57857;DHT22;43683;48.650;9.290;2023-04-24T12:00:03;13.60;55.70
57857;DHT22;43683;48.650;9.290;2023-04-24T12:02:30;13.40;56.00
57857;DHT22;43683;48.650;9.290;2023-04-24T12:04:56;13.60;55.90
57857;DHT22;43683;48.650;9.290;2023-04-24T12:07:22;14.00;55.40
57857;DHT22;43683;48.650;9.290;2023-04-24T12:09:58;14.10;54.60
57857;DHT22;43683;48.650;9.290;2023-04-24T12:12:26;14.30;54.50
57857;DHT22;43683;48.650;9.290;2023-04-24T12:14:58;14.20;54.10
57857;DHT22;43683;48.650;9.290;2023-04-24T12:17:30;14.40;54.20
57857;DHT22;43683;48.650;9.290;2023-04-24T12:20:01;14.50;53.90
57857;DHT22;43683;48.650;9.290;2023-04-24T12:22:27;14.60;53.80
57857;DHT22;43683;48.650;9.290;2023-04-24T12:25:03;14.60;53.80
57857;DHT22;43683;48.650;9.290;2023-04-24T12:27:32;14.30;53.30
57857;DHT22;43683;48.650;9.290;2023-04-24T12:30:03;13.90;53.80
57857;DHT22;43683;48.650;9.290;2023-04-24T12:32:30;13.60;54.50
57857;DHT22;43683;48.650;9.290;2023-04-24T12:34:56;13.40;54.90
57857;DHT22;43683;48.650;9.290;2023-04-24T12:37:25;13.30;55.10
57857;DHT22;43683;48.650;9.290;2023-04-24T12:42:28;13.50;54.80
57857;DHT22;43683;48.650;9.290;2023-04-24T12:45:00;13.80;54.60
57857;DHT22;43683;48.650;9.290;2023-04-24T12:47:27;14.20;54.40
57857;DHT22;43683;48.650;9.290;2023-04-24T12:49:52;14.50;54.10
57857;DHT22;43683;48.650;9.290;2023-04-24T12:52:22;14.70;54.00
57857;DHT22;43683;48.650;9.290;2023-04-24T12:54:59;14.80;54.00
57857;DHT22;43683;48.650;9.290;2023-04-24T12:57:26;14.90;54.00
57857;DHT22;43683;48.650;9.290;2023-04-24T12:59:57;14.80;54.00
57857;DHT22;43683;48.650;9.290;2023-04-24T13:02:24;14.80;54.30
57857;DHT22;43683;48.650;9.290;2023-04-24T13:04:50;14.80;54.10
57857;DHT22;43683;48.650;9.290;2023-04-24T13:07:16;15.00;54.10
57857;DHT22;43683;48.650;9.290;2023-04-24T13:09:43;15.40;53.90
57857;DHT22;43683;48.650;9.290;2023-04-24T13:12:09;15.40;53.50
57857;DHT22;43683;48.650;9.290;2023-04-24T13:14:36;15.20;54.10
57857;DHT22;43683;48.650;9.290;2023-04-24T13:17:02;15.20;54.40
57857;DHT22;43683;48.650;9.290;2023-04-24T13:19:28;14.80;54.70
57857;DHT22;43683;48.650;9.290;2023-04-24T13:21:55;14.70;55.10
57857;DHT22;43683;48.650;9.290;2023-04-24T13:24:22;14.70;55.30
57857;DHT22;43683;48.650;9.290;2023-04-24T13:26:51;14.50;55.20
57857;DHT22;43683;48.650;9.290;2023-04-24T13:29:17;14.40;55.50
57857;DHT22;43683;48.650;9.290;2023-04-24T13:31:43;14.30;55.60
57857;DHT22;43683;48.650;9.290;2023-04-24T13:34:09;14.30;55.50
57857;DHT22;43683;48.650;9.290;2023-04-24T13:36:35;14.40;55.10
57857;DHT22;43683;48.650;9.290;2023-04-24T13:39:01;14.40;55.80
57857;DHT22;43683;48.650;9.290;2023-04-24T13:41:27;14.30;55.10
57857;DHT22;43683;48.650;9.290;2023-04-24T13:43:52;14.00;55.10
57857;DHT22;43683;48.650;9.290;2023-04-24T13:46:18;13.80;55.50
57857;DHT22;43683;48.650;9.290;2023-04-24T13:48:43;13.60;55.80
57857;DHT22;43683;48.650;9.290;2023-04-24T13:51:09;13.40;55.90
57857;DHT22;43683;48.650;9.290;2023-04-24T13:53:35;13.40;55.60
57857;DHT22;43683;48.650;9.290;2023-04-24T13:56:03;13.30;55.60
57857;DHT22;43683;48.650;9.290;2023-04-24T13:58:29;13.10;55.70
57857;DHT22;43683;48.650;9.290;2023-04-24T14:00:55;12.90;56.00
57857;DHT22;43683;48.650;9.290;2023-04-24T14:03:20;12.70;56.20
57857;DHT22;43683;48.650;9.290;2023-04-24T14:05:46;12.70;56.50
57857;DHT22;43683;48.650;9.290;2023-04-24T14:08:11;12.60;56.80
57857;DHT22;43683;48.650;9.290;2023-04-24T14:10:37;12.60;56.80
57857;DHT22;43683;48.650;9.290;2023-04-24T14:13:03;13.00;56.20
57857;DHT22;43683;48.650;9.290;2023-04-24T14:15:28;13.80;55.40
57857;DHT22;43683;48.650;9.290;2023-04-24T14:17:54;14.30;54.40
57857;DHT22;43683;48.650;9.290;2023-04-24T14:20:19;14.50;53.90
57857;DHT22;43683;48.650;9.290;2023-04-24T14:22:45;14.50;53.80
57857;DHT22;43683;48.650;9.290;2023-04-24T14:25:11;14.30;53.90
57857;DHT22;43683;48.650;9.290;2023-04-24T14:27:36;14.00;55.40
57857;DHT22;43683;48.650;9.290;2023-04-24T14:30:03;13.70;55.40
57857;DHT22;43683;48.650;9.290;2023-04-24T14:32:29;13.40;56.10
57857;DHT22;43683;48.650;9.290;2023-04-24T14:34:55;13.10;56.60
57857;DHT22;43683;48.650;9.290;2023-04-24T14:37:20;12.90;56.90
57857;DHT22;43683;48.650;9.290;2023-04-24T14:39:46;12.70;57.10
57857;DHT22;43683;48.650;9.290;2023-04-24T14:42:11;12.60;57.30
57857;DHT22;43683;48.650;9.290;2023-04-24T14:44:37;12.50;57.50
57857;DHT22;43683;48.650;9.290;2023-04-24T14:47:02;12.50;57.50
57857;DHT22;43683;48.650;9.290;2023-04-24T14:49:28;12.70;57.20
57857;DHT22;43683;48.650;9.290;2023-04-24T14:51:53;13.00;56.70
57857;DHT22;43683;48.650;9.290;2023-04-24T14:54:19;13.50;56.10
57857;DHT22;43683;48.650;9.290;2023-04-24T14:56:48;13.90;56.00
57857;DHT22;43683;48.650;9.290;2023-04-24T14:59:14;14.30;55.70
57857;DHT22;43683;48.650;9.290;2023-04-24T15:01:40;15.10;55.40
57857;DHT22;43683;48.650;9.290;2023-04-24T15:04:05;15.80;54.40
57857;DHT22;43683;48.650;9.290;2023-04-24T15:06:31;15.80;53.90
57857;DHT22;43683;48.650;9.290;2023-04-24T15:08:57;15.40;54.00
57857;DHT22;43683;48.650;9.290;2023-04-24T15:11:23;15.20;54.10
57857;DHT22;43683;48.650;9.290;2023-04-24T15:13:48;15.10;54.10
57857;DHT22;43683;48.650;9.290;2023-04-24T15:16:14;14.80;54.30
57857;DHT22;43683;48.650;9.290;2023-04-24T15:18:40;14.50;54.80
57857;DHT22;43683;48.650;9.290;2023-04-24T15:21:06;14.30;54.90
57857;DHT22;43683;48.650;9.290;2023-04-24T15:23:32;14.20;54.60
57857;DHT22;43683;48.650;9.290;2023-04-24T15:25:57;14.10;54.40
57857;DHT22;43683;48.650;9.290;2023-04-24T15:28:24;14.00;54.50
57857;DHT22;43683;48.650;9.290;2023-04-24T15:30:49;14.00;54.60
57857;DHT22;43683;48.650;9.290;2023-04-24T15:33:15;14.10;54.80
57857;DHT22;43683;48.650;9.290;2023-04-24T15:35:40;14.10;54.50
57857;DHT22;43683;48.650;9.290;2023-04-24T15:38:06;14.10;54.60
57857;DHT22;43683;48.650;9.290;2023-04-24T15:40:32;14.00;54.50
57857;DHT22;43683;48.650;9.290;2023-04-24T15:42:57;14.00;54.90
57857;DHT22;43683;48.650;9.290;2023-04-24T15:45:23;13.70;54.90